sensor_id;sensor_type;location;lat;lon;timestamp;P1;durP1;ratioP1;P2;durP2;ratioP2
31818;SDS011;18384;48.860;9.188;2023-02-23T00:01:55;33.80;;;15.88;;
31818;SDS011;18384;48.860;9.188;2023-02-23T00:04:25;29.55;;;16.73;;
31818;SDS011;18384;48.860;9.188;2023-02-23T00:06:51;31.80;;;16.02;;
31818;SDS011;18384;48.860;9.188;2023-02-23T00:09:18;28.85;;;15.00;;
31818;SDS011;18384;48.860;9.188;2023-02-23T00:11:50;31.23;;;15.77;;
31818;SDS011;18384;48.860;9.188;2023-02-23T00:14:19;32.55;;;16.00;;
31818;SDS011;18384;48.860;9.188;2023-02-23T00:16:48;30.88;;;15.95;;
31818;SDS011;18384;48.860;9.188;2023-02-23T00:19:15;26.87;;;14.65;;
31818;SDS011;18384;48.860;9.188;2023-02-23T00:21:41;29.77;;;14.48;;
31818;SDS011;18384;48.860;9.188;2023-02-23T00:24:08;31.25;;;15.82;;
31818;SDS011;18384;48.860;9.188;2023-02-23T00:26:38;32.58;;;16.58;;
31818;SDS011;18384;48.860;9.188;2023-02-23T00:29:07;26.10;;;16.27;;
31818;SDS011;18384;48.860;9.188;2023-02-23T00:31:42;32.22;;;16.42;;
31818;SDS011;18384;48.860;9.188;2023-02-23T00:34:10;28.65;;;15.82;;
31818;SDS011;18384;48.860;9.188;2023-02-23T00:36:38;28.85;;;15.43;;
31818;SDS011;18384;48.860;9.188;2023-02-23T00:39:06;32.33;;;15.20;;
31818;SDS011;18384;48.860;9.188;2023-02-23T00:41:46;33.92;;;15.30;;
31818;SDS011;18384;48.860;9.188;2023-02-23T00:44:14;41.97;;;16.67;;
31818;SDS011;18384;48.860;9.188;2023-02-23T00:46:41;31.83;;;16.45;;
31818;SDS011;18384;48.860;9.188;2023-02-23T00:49:09;33.47;;;16.02;;
31818;SDS011;18384;48.860;9.188;2023-02-23T00:51:37;33.13;;;16.52;;
31818;SDS011;18384;48.860;9.188;2023-02-23T00:54:04;32.35;;;16.30;;
31818;SDS011;18384;48.860;9.188;2023-02-23T00:56:31;28.58;;;16.90;;
31818;SDS011;18384;48.860;9.188;2023-02-23T00:58:58;33.50;;;17.98;;
31818;SDS011;18384;48.860;9.188;2023-02-23T01:01:24;31.77;;;16.77;;
31818;SDS011;18384;48.860;9.188;2023-02-23T01:03:50;42.50;;;16.75;;
31818;SDS011;18384;48.860;9.188;2023-02-23T01:06:19;30.00;;;16.60;;
31818;SDS011;18384;48.860;9.188;2023-02-23T01:08:47;36.85;;;17.95;;
31818;SDS011;18384;48.860;9.188;2023-02-23T01:11:19;28.92;;;16.05;;
31818;SDS011;18384;48.860;9.188;2023-02-23T01:13:50;35.28;;;17.00;;
31818;SDS011;18384;48.860;9.188;2023-02-23T01:16:19;30.85;;;16.85;;
31818;SDS011;18384;48.860;9.188;2023-02-23T01:18:53;31.65;;;17.40;;
31818;SDS011;18384;48.860;9.188;2023-02-23T01:21:25;38.60;;;17.75;;
31818;SDS011;18384;48.860;9.188;2023-02-23T01:23:55;34.75;;;17.52;;
31818;SDS011;18384;48.860;9.188;2023-02-23T01:26:25;33.70;;;17.27;;
31818;SDS011;18384;48.860;9.188;2023-02-23T01:28:55;30.35;;;17.40;;
31818;SDS011;18384;48.860;9.188;2023-02-23T01:31:25;28.75;;;17.70;;
31818;SDS011;18384;48.860;9.188;2023-02-23T01:33:57;34.60;;;17.92;;
31818;SDS011;18384;48.860;9.188;2023-02-23T01:36:26;35.28;;;18.52;;
31818;SDS011;18384;48.860;9.188;2023-02-23T01:38:54;31.52;;;17.80;;
31818;SDS011;18384;48.860;9.188;2023-02-23T01:41:24;33.38;;;16.92;;
31818;SDS011;18384;48.860;9.188;2023-02-23T01:43:57;36.13;;;18.00;;
31818;SDS011;18384;48.860;9.188;2023-02-23T01:47:33;33.97;;;17.73;;
31818;SDS011;18384;48.860;9.188;2023-02-23T01:49:59;29.23;;;17.52;;
31818;SDS011;18384;48.860;9.188;2023-02-23T01:54:52;36.20;;;17.60;;
31818;SDS011;18384;48.860;9.188;2023-02-23T01:57:21;35.63;;;18.12;;
31818;SDS011;18384;48.860;9.188;2023-02-23T01:59:49;36.80;;;18.67;;
31818;SDS011;18384;48.860;9.188;2023-02-23T02:02:20;35.58;;;18.83;;
31818;SDS011;18384;48.860;9.188;2023-02-23T02:04:56;37.60;;;18.65;;
31818;SDS011;18384;48.860;9.188;2023-02-23T02:07:27;37.35;;;19.67;;
31818;SDS011;18384;48.860;9.188;2023-02-23T02:09:55;31.62;;;18.55;;
31818;SDS011;18384;48.860;9.188;2023-02-23T02:13:10;41.95;;;17.90;;
31818;SDS011;18384;48.860;9.188;2023-02-23T02:15:45;33.92;;;19.08;;
31818;SDS011;18384;48.860;9.188;2023-02-23T02:18:46;39.10;;;18.70;;
31818;SDS011;18384;48.860;9.188;2023-02-23T02:21:58;33.53;;;17.27;;
31818;SDS011;18384;48.860;9.188;2023-02-23T02:42:28;36.53;;;20.95;;
31818;SDS011;18384;48.860;9.188;2023-02-23T02:46:11;37.25;;;20.77;;
31818;SDS011;18384;48.860;9.188;2023-02-23T02:54:27;42.08;;;20.70;;
31818;SDS011;18384;48.860;9.188;2023-02-23T02:57:13;35.33;;;20.52;;
31818;SDS011;18384;48.860;9.188;2023-02-23T02:59:44;35.88;;;20.10;;
31818;SDS011;18384;48.860;9.188;2023-02-23T03:02:31;40.75;;;21.02;;
31818;SDS011;18384;48.860;9.188;2023-02-23T03:05:29;35.53;;;20.58;;
31818;SDS011;18384;48.860;9.188;2023-02-23T03:11:53;46.67;;;20.90;;
31818;SDS011;18384;48.860;9.188;2023-02-23T03:16:27;33.42;;;19.75;;
31818;SDS011;18384;48.860;9.188;2023-02-23T03:22:35;35.15;;;19.23;;
31818;SDS011;18384;48.860;9.188;2023-02-23T03:26:13;32.03;;;19.98;;
31818;SDS011;18384;48.860;9.188;2023-02-23T03:29:22;38.00;;;19.77;;
31818;SDS011;18384;48.860;9.188;2023-02-23T03:32:25;35.13;;;20.02;;
31818;SDS011;18384;48.860;9.188;2023-02-23T03:35:21;37.60;;;18.17;;
31818;SDS011;18384;48.860;9.188;2023-02-23T03:38:16;32.17;;;19.20;;
31818;SDS011;18384;48.860;9.188;2023-02-23T03:42:39;30.17;;;18.65;;
31818;SDS011;18384;48.860;9.188;2023-02-23T03:45:26;35.25;;;18.67;;
31818;SDS011;18384;48.860;9.188;2023-02-23T03:48:12;32.95;;;18.95;;
31818;SDS011;18384;48.860;9.188;2023-02-23T03:51:02;32.03;;;19.10;;
31818;SDS011;18384;48.860;9.188;2023-02-23T03:53:52;30.52;;;17.95;;
31818;SDS011;18384;48.860;9.188;2023-02-23T03:56:57;32.05;;;18.67;;
31818;SDS011;18384;48.860;9.188;2023-02-23T03:59:49;39.78;;;18.70;;
31818;SDS011;18384;48.860;9.188;2023-02-23T04:02:41;30.60;;;17.33;;
31818;SDS011;18384;48.860;9.188;2023-02-23T04:05:31;34.35;;;18.58;;
31818;SDS011;18384;48.860;9.188;2023-02-23T04:08:18;30.10;;;17.77;;
31818;SDS011;18384;48.860;9.188;2023-02-23T04:11:18;31.55;;;17.27;;
31818;SDS011;18384;48.860;9.188;2023-02-23T04:17:28;31.73;;;17.70;;
31818;SDS011;18384;48.860;9.188;2023-02-23T04:19:55;28.95;;;17.95;;
31818;SDS011;18384;48.860;9.188;2023-02-23T04:22:22;32.03;;;17.50;;
31818;SDS011;18384;48.860;9.188;2023-02-23T04:24:48;37.75;;;17.70;;
31818;SDS011;18384;48.860;9.188;2023-02-23T04:27:15;31.15;;;16.90;;
31818;SDS011;18384;48.860;9.188;2023-02-23T04:29:41;35.75;;;18.55;;
31818;SDS011;18384;48.860;9.188;2023-02-23T04:34:38;38.88;;;16.60;;
31818;SDS011;18384;48.860;9.188;2023-02-23T04:37:04;34.67;;;18.15;;
31818;SDS011;18384;48.860;9.188;2023-02-23T04:39:30;34.55;;;18.17;;
31818;SDS011;18384;48.860;9.188;2023-02-23T04:41:56;29.95;;;17.20;;
31818;SDS011;18384;48.860;9.188;2023-02-23T04:44:22;31.37;;;18.00;;
31818;SDS011;18384;48.860;9.188;2023-02-23T04:49:15;32.85;;;18.40;;
31818;SDS011;18384;48.860;9.188;2023-02-23T04:51:41;38.55;;;19.55;;
31818;SDS011;18384;48.860;9.188;2023-02-23T04:54:07;34.33;;;18.42;;
31818;SDS011;18384;48.860;9.188;2023-02-23T04:56:34;34.13;;;18.95;;
31818;SDS011;18384;48.860;9.188;2023-02-23T04:59:00;39.90;;;18.75;;
31818;SDS011;18384;48.860;9.188;2023-02-23T05:01:26;30.27;;;17.35;;
31818;SDS011;18384;48.860;9.188;2023-02-23T05:03:53;37.00;;;18.85;;
31818;SDS011;18384;48.860;9.188;2023-02-23T05:08:46;30.55;;;17.42;;
31818;SDS011;18384;48.860;9.188;2023-02-23T05:13:38;35.80;;;19.33;;
31818;SDS011;18384;48.860;9.188;2023-02-23T05:16:04;36.95;;;20.52;;
31818;SDS011;18384;48.860;9.188;2023-02-23T05:18:31;40.65;;;22.80;;
31818;SDS011;18384;48.860;9.188;2023-02-23T05:21:01;39.33;;;21.98;;
31818;SDS011;18384;48.860;9.188;2023-02-23T05:23:33;37.78;;;19.90;;
31818;SDS011;18384;48.860;9.188;2023-02-23T05:26:01;33.97;;;18.95;;
31818;SDS011;18384;48.860;9.188;2023-02-23T05:28:30;31.10;;;18.77;;
31818;SDS011;18384;48.860;9.188;2023-02-23T05:30:58;35.33;;;21.05;;
31818;SDS011;18384;48.860;9.188;2023-02-23T05:33:25;37.03;;;20.92;;
31818;SDS011;18384;48.860;9.188;2023-02-23T05:35:51;36.35;;;20.35;;
31818;SDS011;18384;48.860;9.188;2023-02-23T05:38:17;36.60;;;20.80;;
31818;SDS011;18384;48.860;9.188;2023-02-23T05:40:44;38.55;;;20.95;;
31818;SDS011;18384;48.860;9.188;2023-02-23T05:43:10;34.17;;;20.67;;
31818;SDS011;18384;48.860;9.188;2023-02-23T05:45:38;34.40;;;19.62;;
31818;SDS011;18384;48.860;9.188;2023-02-23T05:48:06;31.98;;;19.95;;
31818;SDS011;18384;48.860;9.188;2023-02-23T05:50:33;34.95;;;19.90;;
31818;SDS011;18384;48.860;9.188;2023-02-23T05:53:00;36.53;;;20.45;;
31818;SDS011;18384;48.860;9.188;2023-02-23T05:55:26;28.87;;;18.67;;
31818;SDS011;18384;48.860;9.188;2023-02-23T05:57:52;35.85;;;19.25;;
31818;SDS011;18384;48.860;9.188;2023-02-23T06:02:45;35.15;;;19.25;;
31818;SDS011;18384;48.860;9.188;2023-02-23T06:05:11;33.75;;;19.70;;
31818;SDS011;18384;48.860;9.188;2023-02-23T06:07:38;31.92;;;19.08;;
31818;SDS011;18384;48.860;9.188;2023-02-23T06:12:31;39.83;;;19.20;;
31818;SDS011;18384;48.860;9.188;2023-02-23T06:14:57;33.60;;;18.60;;
31818;SDS011;18384;48.860;9.188;2023-02-23T06:17:23;36.28;;;19.42;;
31818;SDS011;18384;48.860;9.188;2023-02-23T06:19:49;35.60;;;19.95;;
31818;SDS011;18384;48.860;9.188;2023-02-23T06:22:16;31.02;;;20.20;;
31818;SDS011;18384;48.860;9.188;2023-02-23T06:24:42;31.80;;;19.73;;
31818;SDS011;18384;48.860;9.188;2023-02-23T06:27:09;36.35;;;18.92;;
31818;SDS011;18384;48.860;9.188;2023-02-23T06:29:36;34.75;;;19.92;;
31818;SDS011;18384;48.860;9.188;2023-02-23T06:32:02;32.65;;;19.87;;
31818;SDS011;18384;48.860;9.188;2023-02-23T06:34:29;32.65;;;19.45;;
31818;SDS011;18384;48.860;9.188;2023-02-23T06:36:56;35.20;;;20.83;;
31818;SDS011;18384;48.860;9.188;2023-02-23T06:39:22;34.90;;;19.10;;
31818;SDS011;18384;48.860;9.188;2023-02-23T06:41:48;39.40;;;20.92;;
31818;SDS011;18384;48.860;9.188;2023-02-23T06:44:14;36.47;;;20.23;;
31818;SDS011;18384;48.860;9.188;2023-02-23T06:46:40;32.85;;;19.23;;
31818;SDS011;18384;48.860;9.188;2023-02-23T06:49:06;32.95;;;20.05;;
31818;SDS011;18384;48.860;9.188;2023-02-23T06:51:33;31.05;;;19.17;;
31818;SDS011;18384;48.860;9.188;2023-02-23T06:53:59;38.35;;;19.95;;
31818;SDS011;18384;48.860;9.188;2023-02-23T06:56:25;34.55;;;21.00;;
31818;SDS011;18384;48.860;9.188;2023-02-23T06:58:51;45.10;;;19.77;;
31818;SDS011;18384;48.860;9.188;2023-02-23T07:01:17;39.22;;;20.37;;
31818;SDS011;18384;48.860;9.188;2023-02-23T07:03:45;38.10;;;20.00;;
31818;SDS011;18384;48.860;9.188;2023-02-23T07:08:37;36.63;;;19.95;;
31818;SDS011;18384;48.860;9.188;2023-02-23T07:11:10;35.58;;;20.77;;
31818;SDS011;18384;48.860;9.188;2023-02-23T07:13:40;41.67;;;21.10;;
31818;SDS011;18384;48.860;9.188;2023-02-23T07:16:07;40.15;;;21.37;;
31818;SDS011;18384;48.860;9.188;2023-02-23T07:18:33;37.80;;;20.52;;
31818;SDS011;18384;48.860;9.188;2023-02-23T07:20:59;38.22;;;21.65;;
31818;SDS011;18384;48.860;9.188;2023-02-23T07:23:25;43.25;;;21.35;;
31818;SDS011;18384;48.860;9.188;2023-02-23T07:25:52;40.40;;;20.48;;
31818;SDS011;18384;48.860;9.188;2023-02-23T07:28:22;36.67;;;21.75;;
31818;SDS011;18384;48.860;9.188;2023-02-23T07:30:49;41.33;;;21.02;;
31818;SDS011;18384;48.860;9.188;2023-02-23T07:33:16;33.45;;;20.45;;
31818;SDS011;18384;48.860;9.188;2023-02-23T07:35:42;36.15;;;19.37;;
31818;SDS011;18384;48.860;9.188;2023-02-23T07:38:09;39.10;;;22.08;;
31818;SDS011;18384;48.860;9.188;2023-02-23T07:40:35;44.42;;;22.45;;
31818;SDS011;18384;48.860;9.188;2023-02-23T07:43:01;39.97;;;22.73;;
31818;SDS011;18384;48.860;9.188;2023-02-23T07:45:27;39.20;;;22.55;;
31818;SDS011;18384;48.860;9.188;2023-02-23T07:47:53;39.33;;;20.98;;
31818;SDS011;18384;48.860;9.188;2023-02-23T07:50:20;34.35;;;20.75;;
31818;SDS011;18384;48.860;9.188;2023-02-23T07:52:46;44.33;;;21.05;;
31818;SDS011;18384;48.860;9.188;2023-02-23T07:55:12;36.38;;;19.62;;
31818;SDS011;18384;48.860;9.188;2023-02-23T07:57:38;35.55;;;19.50;;
31818;SDS011;18384;48.860;9.188;2023-02-23T08:00:05;40.08;;;19.12;;
31818;SDS011;18384;48.860;9.188;2023-02-23T08:02:32;37.47;;;19.27;;
31818;SDS011;18384;48.860;9.188;2023-02-23T08:04:58;31.33;;;18.42;;
31818;SDS011;18384;48.860;9.188;2023-02-23T08:07:25;37.17;;;17.83;;
31818;SDS011;18384;48.860;9.188;2023-02-23T08:09:51;36.70;;;17.60;;
31818;SDS011;18384;48.860;9.188;2023-02-23T08:12:17;31.35;;;16.87;;
31818;SDS011;18384;48.860;9.188;2023-02-23T08:14:44;34.40;;;17.40;;
31818;SDS011;18384;48.860;9.188;2023-02-23T08:19:36;27.40;;;16.42;;
31818;SDS011;18384;48.860;9.188;2023-02-23T08:22:04;30.67;;;17.55;;
31818;SDS011;18384;48.860;9.188;2023-02-23T08:24:30;33.53;;;16.70;;
31818;SDS011;18384;48.860;9.188;2023-02-23T08:26:57;26.20;;;15.85;;
31818;SDS011;18384;48.860;9.188;2023-02-23T08:29:23;28.85;;;16.95;;
31818;SDS011;18384;48.860;9.188;2023-02-23T08:31:49;33.25;;;17.00;;
31818;SDS011;18384;48.860;9.188;2023-02-23T08:34:16;34.00;;;16.67;;
31818;SDS011;18384;48.860;9.188;2023-02-23T08:36:43;32.42;;;16.75;;
31818;SDS011;18384;48.860;9.188;2023-02-23T08:39:10;29.73;;;16.70;;
31818;SDS011;18384;48.860;9.188;2023-02-23T08:41:37;30.77;;;17.00;;
31818;SDS011;18384;48.860;9.188;2023-02-23T08:44:04;28.73;;;16.17;;
31818;SDS011;18384;48.860;9.188;2023-02-23T08:46:30;34.92;;;17.42;;
31818;SDS011;18384;48.860;9.188;2023-02-23T08:48:57;31.80;;;16.15;;
31818;SDS011;18384;48.860;9.188;2023-02-23T08:51:23;31.15;;;16.65;;
31818;SDS011;18384;48.860;9.188;2023-02-23T08:53:49;34.10;;;17.45;;
31818;SDS011;18384;48.860;9.188;2023-02-23T08:56:15;33.17;;;17.27;;
31818;SDS011;18384;48.860;9.188;2023-02-23T08:58:41;29.80;;;16.77;;
31818;SDS011;18384;48.860;9.188;2023-02-23T09:01:14;34.75;;;17.58;;
31818;SDS011;18384;48.860;9.188;2023-02-23T09:03:42;32.88;;;17.20;;
31818;SDS011;18384;48.860;9.188;2023-02-23T09:06:10;34.33;;;18.50;;
31818;SDS011;18384;48.860;9.188;2023-02-23T09:08:41;36.88;;;17.80;;
31818;SDS011;18384;48.860;9.188;2023-02-23T09:11:07;35.03;;;17.40;;
31818;SDS011;18384;48.860;9.188;2023-02-23T09:13:33;34.30;;;17.65;;
31818;SDS011;18384;48.860;9.188;2023-02-23T09:16:00;25.92;;;16.40;;
31818;SDS011;18384;48.860;9.188;2023-02-23T09:18:28;32.20;;;16.83;;
31818;SDS011;18384;48.860;9.188;2023-02-23T09:20:55;30.92;;;15.32;;
31818;SDS011;18384;48.860;9.188;2023-02-23T09:23:21;31.70;;;16.00;;
31818;SDS011;18384;48.860;9.188;2023-02-23T09:25:48;25.98;;;15.40;;
31818;SDS011;18384;48.860;9.188;2023-02-23T09:28:15;27.60;;;13.70;;
31818;SDS011;18384;48.860;9.188;2023-02-23T09:30:44;24.08;;;13.27;;
31818;SDS011;18384;48.860;9.188;2023-02-23T09:33:11;26.55;;;12.15;;
31818;SDS011;18384;48.860;9.188;2023-02-23T09:35:38;27.42;;;13.73;;
31818;SDS011;18384;48.860;9.188;2023-02-23T09:38:05;24.30;;;13.10;;
31818;SDS011;18384;48.860;9.188;2023-02-23T09:40:44;25.73;;;14.40;;
31818;SDS011;18384;48.860;9.188;2023-02-23T09:47:40;25.50;;;12.57;;
31818;SDS011;18384;48.860;9.188;2023-02-23T09:50:31;24.37;;;12.70;;
31818;SDS011;18384;48.860;9.188;2023-02-23T09:53:01;22.83;;;12.82;;
31818;SDS011;18384;48.860;9.188;2023-02-23T09:55:34;27.35;;;12.45;;
31818;SDS011;18384;48.860;9.188;2023-02-23T09:58:06;23.73;;;14.02;;
31818;SDS011;18384;48.860;9.188;2023-02-23T10:00:45;31.02;;;13.93;;
31818;SDS011;18384;48.860;9.188;2023-02-23T10:03:49;20.73;;;13.02;;
31818;SDS011;18384;48.860;9.188;2023-02-23T10:06:24;22.98;;;11.88;;
31818;SDS011;18384;48.860;9.188;2023-02-23T10:08:56;20.88;;;11.77;;
31818;SDS011;18384;48.860;9.188;2023-02-23T10:14:50;21.85;;;12.05;;
31818;SDS011;18384;48.860;9.188;2023-02-23T10:17:38;26.65;;;14.23;;
31818;SDS011;18384;48.860;9.188;2023-02-23T10:23:22;25.40;;;12.73;;
31818;SDS011;18384;48.860;9.188;2023-02-23T10:25:58;29.65;;;13.75;;
31818;SDS011;18384;48.860;9.188;2023-02-23T10:28:26;23.67;;;12.77;;
31818;SDS011;18384;48.860;9.188;2023-02-23T10:31:00;26.27;;;13.30;;
31818;SDS011;18384;48.860;9.188;2023-02-23T10:33:48;24.42;;;13.45;;
31818;SDS011;18384;48.860;9.188;2023-02-23T10:36:16;21.87;;;12.98;;
31818;SDS011;18384;48.860;9.188;2023-02-23T10:39:00;27.77;;;13.20;;
31818;SDS011;18384;48.860;9.188;2023-02-23T10:41:30;26.12;;;12.70;;
31818;SDS011;18384;48.860;9.188;2023-02-23T10:43:56;30.83;;;12.48;;
31818;SDS011;18384;48.860;9.188;2023-02-23T10:46:24;21.98;;;12.48;;
31818;SDS011;18384;48.860;9.188;2023-02-23T10:49:02;21.20;;;11.40;;
31818;SDS011;18384;48.860;9.188;2023-02-23T10:51:32;21.50;;;11.15;;
31818;SDS011;18384;48.860;9.188;2023-02-23T10:57:33;17.62;;;9.50;;
31818;SDS011;18384;48.860;9.188;2023-02-23T11:06:04;18.37;;;9.40;;
31818;SDS011;18384;48.860;9.188;2023-02-23T11:08:37;23.00;;;10.45;;
31818;SDS011;18384;48.860;9.188;2023-02-23T11:11:06;17.48;;;9.73;;
31818;SDS011;18384;48.860;9.188;2023-02-23T11:13:55;16.83;;;8.88;;
31818;SDS011;18384;48.860;9.188;2023-02-23T11:16:25;18.35;;;8.90;;
31818;SDS011;18384;48.860;9.188;2023-02-23T11:19:00;16.40;;;9.30;;
31818;SDS011;18384;48.860;9.188;2023-02-23T11:21:29;15.20;;;9.00;;
31818;SDS011;18384;48.860;9.188;2023-02-23T11:24:05;22.27;;;9.10;;
31818;SDS011;18384;48.860;9.188;2023-02-23T11:26:47;19.48;;;9.73;;
31818;SDS011;18384;48.860;9.188;2023-02-23T11:29:25;16.37;;;9.52;;
31818;SDS011;18384;48.860;9.188;2023-02-23T11:37:55;18.98;;;8.65;;
31818;SDS011;18384;48.860;9.188;2023-02-23T11:45:47;14.20;;;8.40;;
31818;SDS011;18384;48.860;9.188;2023-02-23T11:48:20;17.67;;;8.27;;
31818;SDS011;18384;48.860;9.188;2023-02-23T11:50:52;16.52;;;8.48;;
31818;SDS011;18384;48.860;9.188;2023-02-23T11:53:22;14.77;;;8.60;;
31818;SDS011;18384;48.860;9.188;2023-02-23T11:55:57;15.43;;;7.93;;
31818;SDS011;18384;48.860;9.188;2023-02-23T11:58:51;17.73;;;7.53;;
31818;SDS011;18384;48.860;9.188;2023-02-23T12:02:13;19.98;;;10.48;;
31818;SDS011;18384;48.860;9.188;2023-02-23T12:05:06;16.45;;;8.07;;
31818;SDS011;18384;48.860;9.188;2023-02-23T12:07:45;18.77;;;7.57;;
31818;SDS011;18384;48.860;9.188;2023-02-23T12:10:42;25.42;;;6.65;;
31818;SDS011;18384;48.860;9.188;2023-02-23T12:14:00;17.42;;;6.85;;
31818;SDS011;18384;48.860;9.188;2023-02-23T12:16:52;15.57;;;6.10;;
31818;SDS011;18384;48.860;9.188;2023-02-23T12:19:31;16.17;;;6.53;;
31818;SDS011;18384;48.860;9.188;2023-02-23T12:22:12;18.00;;;6.78;;
31818;SDS011;18384;48.860;9.188;2023-02-23T12:24:46;11.38;;;5.97;;
31818;SDS011;18384;48.860;9.188;2023-02-23T12:27:25;17.55;;;5.82;;
31818;SDS011;18384;48.860;9.188;2023-02-23T12:30:30;11.93;;;5.97;;
31818;SDS011;18384;48.860;9.188;2023-02-23T12:33:11;13.38;;;5.53;;
31818;SDS011;18384;48.860;9.188;2023-02-23T12:41:38;14.70;;;7.20;;
31818;SDS011;18384;48.860;9.188;2023-02-23T12:44:51;12.13;;;5.93;;
31818;SDS011;18384;48.860;9.188;2023-02-23T12:47:31;11.15;;;4.97;;
31818;SDS011;18384;48.860;9.188;2023-02-23T12:53:25;13.52;;;5.35;;
31818;SDS011;18384;48.860;9.188;2023-02-23T12:56:19;16.02;;;5.03;;
31818;SDS011;18384;48.860;9.188;2023-02-23T13:01:35;13.73;;;6.68;;
31818;SDS011;18384;48.860;9.188;2023-02-23T13:04:34;16.62;;;6.22;;
31818;SDS011;18384;48.860;9.188;2023-02-23T13:07:33;21.27;;;6.25;;
31818;SDS011;18384;48.860;9.188;2023-02-23T13:20:41;16.75;;;5.72;;
31818;SDS011;18384;48.860;9.188;2023-02-23T13:23:37;14.87;;;4.37;;
31818;SDS011;18384;48.860;9.188;2023-02-23T13:26:41;11.70;;;4.25;;
31818;SDS011;18384;48.860;9.188;2023-02-23T13:29:35;13.45;;;3.78;;
31818;SDS011;18384;48.860;9.188;2023-02-23T13:32:11;11.88;;;4.05;;
31818;SDS011;18384;48.860;9.188;2023-02-23T13:34:43;23.70;;;4.22;;
31818;SDS011;18384;48.860;9.188;2023-02-23T13:37:17;12.37;;;3.47;;
31818;SDS011;18384;48.860;9.188;2023-02-23T13:46:48;10.48;;;3.30;;
31818;SDS011;18384;48.860;9.188;2023-02-23T13:53:58;9.57;;;3.20;;
31818;SDS011;18384;48.860;9.188;2023-02-23T13:57:14;7.70;;;3.42;;
31818;SDS011;18384;48.860;9.188;2023-02-23T13:59:41;7.95;;;3.47;;
31818;SDS011;18384;48.860;9.188;2023-02-23T14:02:22;12.02;;;3.50;;
31818;SDS011;18384;48.860;9.188;2023-02-23T14:05:11;11.30;;;3.47;;
31818;SDS011;18384;48.860;9.188;2023-02-23T14:07:45;7.87;;;2.92;;
31818;SDS011;18384;48.860;9.188;2023-02-23T14:10:26;14.90;;;3.05;;
31818;SDS011;18384;48.860;9.188;2023-02-23T14:16:30;7.78;;;3.47;;
31818;SDS011;18384;48.860;9.188;2023-02-23T14:21:56;9.88;;;3.42;;
31818;SDS011;18384;48.860;9.188;2023-02-23T14:24:29;9.50;;;2.87;;
31818;SDS011;18384;48.860;9.188;2023-02-23T14:27:18;8.23;;;2.97;;
31818;SDS011;18384;48.860;9.188;2023-02-23T14:32:46;9.15;;;3.20;;
31818;SDS011;18384;48.860;9.188;2023-02-23T14:35:36;9.10;;;3.00;;
31818;SDS011;18384;48.860;9.188;2023-02-23T14:38:15;10.07;;;4.05;;
31818;SDS011;18384;48.860;9.188;2023-02-23T14:40:52;10.60;;;3.85;;
31818;SDS011;18384;48.860;9.188;2023-02-23T14:43:38;12.43;;;3.62;;
31818;SDS011;18384;48.860;9.188;2023-02-23T14:48:38;12.80;;;4.70;;
31818;SDS011;18384;48.860;9.188;2023-02-23T14:51:17;12.10;;;3.95;;
31818;SDS011;18384;48.860;9.188;2023-02-23T14:53:49;19.77;;;5.35;;
31818;SDS011;18384;48.860;9.188;2023-02-23T14:56:21;13.15;;;4.55;;
31818;SDS011;18384;48.860;9.188;2023-02-23T14:58:52;13.90;;;4.78;;
31818;SDS011;18384;48.860;9.188;2023-02-23T15:01:35;9.88;;;4.45;;
31818;SDS011;18384;48.860;9.188;2023-02-23T15:04:11;15.52;;;5.93;;
31818;SDS011;18384;48.860;9.188;2023-02-23T15:06:41;16.52;;;4.97;;
31818;SDS011;18384;48.860;9.188;2023-02-23T15:09:15;17.45;;;5.10;;
31818;SDS011;18384;48.860;9.188;2023-02-23T15:11:55;17.62;;;5.28;;
31818;SDS011;18384;48.860;9.188;2023-02-23T15:14:24;16.60;;;6.78;;
31818;SDS011;18384;48.860;9.188;2023-02-23T15:16:50;16.08;;;6.75;;
31818;SDS011;18384;48.860;9.188;2023-02-23T15:19:30;20.23;;;6.12;;
31818;SDS011;18384;48.860;9.188;2023-02-23T15:22:00;15.23;;;5.72;;
31818;SDS011;18384;48.860;9.188;2023-02-23T15:24:39;13.60;;;5.47;;
31818;SDS011;18384;48.860;9.188;2023-02-23T15:27:14;10.80;;;5.57;;
31818;SDS011;18384;48.860;9.188;2023-02-23T15:29:47;15.25;;;5.75;;
31818;SDS011;18384;48.860;9.188;2023-02-23T15:32:23;12.45;;;5.30;;
31818;SDS011;18384;48.860;9.188;2023-02-23T15:34:51;14.00;;;5.80;;
31818;SDS011;18384;48.860;9.188;2023-02-23T15:37:24;11.70;;;5.18;;
31818;SDS011;18384;48.860;9.188;2023-02-23T15:40:03;15.52;;;5.10;;
31818;SDS011;18384;48.860;9.188;2023-02-23T15:42:38;21.75;;;5.20;;
31818;SDS011;18384;48.860;9.188;2023-02-23T15:45:39;11.65;;;4.87;;
31818;SDS011;18384;48.860;9.188;2023-02-23T15:48:30;13.13;;;4.72;;
31818;SDS011;18384;48.860;9.188;2023-02-23T15:51:26;12.55;;;5.30;;
31818;SDS011;18384;48.860;9.188;2023-02-23T15:54:02;17.50;;;5.25;;
31818;SDS011;18384;48.860;9.188;2023-02-23T15:56:49;14.13;;;6.60;;
31818;SDS011;18384;48.860;9.188;2023-02-23T15:59:28;15.95;;;5.62;;
31818;SDS011;18384;48.860;9.188;2023-02-23T16:02:00;20.90;;;5.80;;
31818;SDS011;18384;48.860;9.188;2023-02-23T16:04:37;14.60;;;5.65;;
31818;SDS011;18384;48.860;9.188;2023-02-23T16:10:14;10.68;;;4.65;;
31818;SDS011;18384;48.860;9.188;2023-02-23T16:12:49;19.80;;;6.75;;
31818;SDS011;18384;48.860;9.188;2023-02-23T16:15:25;11.95;;;5.20;;
31818;SDS011;18384;48.860;9.188;2023-02-23T16:18:00;13.45;;;5.10;;
31818;SDS011;18384;48.860;9.188;2023-02-23T16:20:34;23.83;;;5.90;;
31818;SDS011;18384;48.860;9.188;2023-02-23T16:26:28;13.95;;;5.22;;
31818;SDS011;18384;48.860;9.188;2023-02-23T16:29:24;13.25;;;5.37;;
31818;SDS011;18384;48.860;9.188;2023-02-23T16:31:58;16.55;;;6.97;;
31818;SDS011;18384;48.860;9.188;2023-02-23T16:34:32;15.95;;;6.60;;
31818;SDS011;18384;48.860;9.188;2023-02-23T16:37:27;21.45;;;10.20;;
31818;SDS011;18384;48.860;9.188;2023-02-23T16:39:53;24.67;;;11.40;;
31818;SDS011;18384;48.860;9.188;2023-02-23T16:42:28;23.17;;;12.15;;
31818;SDS011;18384;48.860;9.188;2023-02-23T16:44:59;23.62;;;9.15;;
31818;SDS011;18384;48.860;9.188;2023-02-23T16:47:40;22.02;;;10.55;;
31818;SDS011;18384;48.860;9.188;2023-02-23T16:50:18;24.77;;;10.38;;
31818;SDS011;18384;48.860;9.188;2023-02-23T16:52:49;16.30;;;7.35;;
31818;SDS011;18384;48.860;9.188;2023-02-23T16:55:17;15.70;;;6.72;;
31818;SDS011;18384;48.860;9.188;2023-02-23T16:57:51;18.25;;;6.97;;
31818;SDS011;18384;48.860;9.188;2023-02-23T17:00:24;18.58;;;6.85;;
31818;SDS011;18384;48.860;9.188;2023-02-23T17:02:57;15.10;;;6.82;;
31818;SDS011;18384;48.860;9.188;2023-02-23T17:05:25;17.50;;;7.10;;
31818;SDS011;18384;48.860;9.188;2023-02-23T17:07:53;19.98;;;7.30;;
31818;SDS011;18384;48.860;9.188;2023-02-23T17:10:22;15.48;;;7.37;;
31818;SDS011;18384;48.860;9.188;2023-02-23T17:12:56;18.15;;;7.78;;
31818;SDS011;18384;48.860;9.188;2023-02-23T17:15:27;17.20;;;7.93;;
31818;SDS011;18384;48.860;9.188;2023-02-23T17:18:00;23.10;;;8.57;;
31818;SDS011;18384;48.860;9.188;2023-02-23T17:22:54;20.48;;;10.32;;
31818;SDS011;18384;48.860;9.188;2023-02-23T17:25:23;20.75;;;9.65;;
31818;SDS011;18384;48.860;9.188;2023-02-23T17:27:54;18.92;;;8.07;;
31818;SDS011;18384;48.860;9.188;2023-02-23T17:30:21;20.25;;;9.88;;
31818;SDS011;18384;48.860;9.188;2023-02-23T17:32:52;20.62;;;8.75;;
31818;SDS011;18384;48.860;9.188;2023-02-23T17:35:22;25.40;;;10.73;;